sensor_id;sensor_type;location;lat;lon;timestamp;pressure;altitude;pressure_sealevel;temperature;humidity
56668;BME280;42542;48.360;10.958;2022-09-09T00:03:16;95925.97;;;13.19;95.03
56668;BME280;42542;48.360;10.958;2022-09-09T00:09:23;95928.88;;;13.17;95.37
56668;BME280;42542;48.360;10.958;2022-09-09T00:12:51;95931.72;;;13.16;95.53
56668;BME280;42542;48.360;10.958;2022-09-09T00:16:20;95926.38;;;13.16;95.88
56668;BME280;42542;48.360;10.958;2022-09-09T00:19:30;95917.81;;;13.12;95.82
56668;BME280;42542;48.360;10.958;2022-09-09T00:22:36;95921.72;;;13.10;95.58
56668;BME280;42542;48.360;10.958;2022-09-09T00:32:16;95910.50;;;13.06;96.48
56668;BME280;42542;48.360;10.958;2022-09-09T00:38:36;95923.06;;;13.06;96.38
56668;BME280;42542;48.360;10.958;2022-09-09T00:42:12;95922.44;;;13.04;96.75
56668;BME280;42542;48.360;10.958;2022-09-09T00:45:41;95915.19;;;13.04;96.89
56668;BME280;42542;48.360;10.958;2022-09-09T00:55:09;95910.03;;;13.03;96.70
56668;BME280;42542;48.360;10.958;2022-09-09T00:58:15;95920.97;;;13.01;97.18
56668;BME280;42542;48.360;10.958;2022-09-09T01:01:17;95914.56;;;13.02;97.53
56668;BME280;42542;48.360;10.958;2022-09-09T01:04:26;95915.41;;;13.03;97.64
56668;BME280;42542;48.360;10.958;2022-09-09T01:07:32;95918.94;;;13.03;97.61
56668;BME280;42542;48.360;10.958;2022-09-09T01:10:54;95910.66;;;13.05;98.60
56668;BME280;42542;48.360;10.958;2022-09-09T01:17:19;95905.31;;;13.05;98.29
56668;BME280;42542;48.360;10.958;2022-09-09T01:24:14;95916.88;;;13.05;98.50
56668;BME280;42542;48.360;10.958;2022-09-09T01:27:42;95908.81;;;13.05;98.32
56668;BME280;42542;48.360;10.958;2022-09-09T01:30:45;95900.97;;;13.04;98.47
56668;BME280;42542;48.360;10.958;2022-09-09T01:33:50;95898.94;;;13.06;98.02
56668;BME280;42542;48.360;10.958;2022-09-09T01:39:59;95900.97;;;13.04;97.74
56668;BME280;42542;48.360;10.958;2022-09-09T01:43:02;95896.63;;;13.03;97.54
56668;BME280;42542;48.360;10.958;2022-09-09T01:46:04;95899.50;;;13.01;97.75
56668;BME280;42542;48.360;10.958;2022-09-09T01:49:09;95895.97;;;13.01;97.26
56668;BME280;42542;48.360;10.958;2022-09-09T01:52:11;95900.69;;;12.99;97.34
56668;BME280;42542;48.360;10.958;2022-09-09T01:55:13;95893.66;;;12.98;97.37
56668;BME280;42542;48.360;10.958;2022-09-09T02:04:41;95888.84;;;12.93;97.36
56668;BME280;42542;48.360;10.958;2022-09-09T02:07:52;95882.81;;;12.91;97.55
56668;BME280;42542;48.360;10.958;2022-09-09T02:11:18;95878.03;;;12.86;97.51
56668;BME280;42542;48.360;10.958;2022-09-09T02:14:37;95873.66;;;12.85;97.63
56668;BME280;42542;48.360;10.958;2022-09-09T02:17:46;95880.03;;;12.84;97.48
56668;BME280;42542;48.360;10.958;2022-09-09T02:20:51;95875.06;;;12.81;97.47
56668;BME280;42542;48.360;10.958;2022-09-09T02:23:57;95878.75;;;12.80;97.70
56668;BME280;42542;48.360;10.958;2022-09-09T02:27:06;95868.38;;;12.77;97.65
56668;BME280;42542;48.360;10.958;2022-09-09T02:30:11;95870.41;;;12.75;97.57
56668;BME280;42542;48.360;10.958;2022-09-09T02:33:19;95869.78;;;12.73;97.86
56668;BME280;42542;48.360;10.958;2022-09-09T02:36:26;95867.28;;;12.72;97.91
56668;BME280;42542;48.360;10.958;2022-09-09T02:39:30;95866.63;;;12.70;98.11
56668;BME280;42542;48.360;10.958;2022-09-09T02:42:41;95870.31;;;12.69;98.29
56668;BME280;42542;48.360;10.958;2022-09-09T02:45:57;95873.22;;;12.67;98.24
56668;BME280;42542;48.360;10.958;2022-09-09T02:49:09;95866.34;;;12.65;98.12
56668;BME280;42542;48.360;10.958;2022-09-09T02:52:14;95862.84;;;12.64;98.21
56668;BME280;42542;48.360;10.958;2022-09-09T02:55:38;95870.22;;;12.62;98.36
56668;BME280;42542;48.360;10.958;2022-09-09T02:58:43;95864.03;;;12.62;98.13
56668;BME280;42542;48.360;10.958;2022-09-09T03:01:45;95860.88;;;12.58;98.67
56668;BME280;42542;48.360;10.958;2022-09-09T03:04:47;95864.59;;;12.57;98.48
56668;BME280;42542;48.360;10.958;2022-09-09T03:07:53;95866.44;;;12.57;98.59
56668;BME280;42542;48.360;10.958;2022-09-09T03:10:55;95862.91;;;12.56;98.59
56668;BME280;42542;48.360;10.958;2022-09-09T03:13:59;95871.97;;;12.55;98.52
56668;BME280;42542;48.360;10.958;2022-09-09T03:17:05;95880.38;;;12.52;98.54
56668;BME280;42542;48.360;10.958;2022-09-09T03:20:12;95875.88;;;12.52;98.65
56668;BME280;42542;48.360;10.958;2022-09-09T03:23:14;95869.84;;;12.50;98.48
56668;BME280;42542;48.360;10.958;2022-09-09T03:26:18;95879.72;;;12.50;98.81
56668;BME280;42542;48.360;10.958;2022-09-09T03:29:21;95884.91;;;12.51;99.19
56668;BME280;42542;48.360;10.958;2022-09-09T03:32:27;95879.72;;;12.50;99.32
56668;BME280;42542;48.360;10.958;2022-09-09T03:35:30;95877.88;;;12.50;99.18
56668;BME280;42542;48.360;10.958;2022-09-09T03:38:33;95882.41;;;12.50;99.15
56668;BME280;42542;48.360;10.958;2022-09-09T03:41:35;95870.84;;;12.49;99.09
56668;BME280;42542;48.360;10.958;2022-09-09T03:44:40;95866.31;;;12.50;99.14
56668;BME280;42542;48.360;10.958;2022-09-09T03:47:43;95865.50;;;12.49;99.64
56668;BME280;42542;48.360;10.958;2022-09-09T03:50:51;95862.81;;;12.49;99.41
56668;BME280;42542;48.360;10.958;2022-09-09T03:53:55;95857.44;;;12.49;99.08
56668;BME280;42542;48.360;10.958;2022-09-09T03:56:59;95857.81;;;12.46;99.33
56668;BME280;42542;48.360;10.958;2022-09-09T04:00:06;95847.28;;;12.45;99.50
56668;BME280;42542;48.360;10.958;2022-09-09T04:03:16;95855.31;;;12.45;99.16
56668;BME280;42542;48.360;10.958;2022-09-09T04:06:18;95854.50;;;12.44;99.42
56668;BME280;42542;48.360;10.958;2022-09-09T04:09:22;95856.50;;;12.42;99.28
56668;BME280;42542;48.360;10.958;2022-09-09T04:12:25;95856.69;;;12.41;99.09
56668;BME280;42542;48.360;10.958;2022-09-09T04:15:27;95851.72;;;12.38;99.58
56668;BME280;42542;48.360;10.958;2022-09-09T04:18:32;95851.88;;;12.36;99.34
56668;BME280;42542;48.360;10.958;2022-09-09T04:21:35;95848.03;;;12.39;99.35
56668;BME280;42542;48.360;10.958;2022-09-09T04:24:37;95849.03;;;12.38;100.00
56668;BME280;42542;48.360;10.958;2022-09-09T04:27:39;95849.88;;;12.38;100.00
56668;BME280;42542;48.360;10.958;2022-09-09T04:30:42;95856.69;;;12.41;100.00
56668;BME280;42542;48.360;10.958;2022-09-09T04:33:44;95861.53;;;12.45;100.00
56668;BME280;42542;48.360;10.958;2022-09-09T04:36:46;95864.00;;;12.47;100.00
56668;BME280;42542;48.360;10.958;2022-09-09T04:39:48;95861.81;;;12.50;100.00
56668;BME280;42542;48.360;10.958;2022-09-09T04:42:50;95860.41;;;12.55;100.00
56668;BME280;42542;48.360;10.958;2022-09-09T04:45:52;95860.50;;;12.61;100.00
56668;BME280;42542;48.360;10.958;2022-09-09T04:48:57;95859.13;;;12.65;100.00
56668;BME280;42542;48.360;10.958;2022-09-09T04:52:03;95849.69;;;12.69;100.00
56668;BME280;42542;48.360;10.958;2022-09-09T04:55:08;95854.88;;;12.71;100.00
56668;BME280;42542;48.360;10.958;2022-09-09T04:58:11;95858.88;;;12.75;100.00
56668;BME280;42542;48.360;10.958;2022-09-09T05:01:15;95849.63;;;12.77;100.00
56668;BME280;42542;48.360;10.958;2022-09-09T05:04:20;95855.25;;;12.82;100.00
56668;BME280;42542;48.360;10.958;2022-09-09T05:07:22;95861.94;;;12.86;100.00
56668;BME280;42542;48.360;10.958;2022-09-09T05:10:25;95861.38;;;12.91;100.00
56668;BME280;42542;48.360;10.958;2022-09-09T05:13:28;95854.63;;;12.95;100.00
56668;BME280;42542;48.360;10.958;2022-09-09T05:16:30;95852.22;;;13.00;100.00
56668;BME280;42542;48.360;10.958;2022-09-09T05:19:33;95863.41;;;13.04;100.00
56668;BME280;42542;48.360;10.958;2022-09-09T05:22:36;95854.81;;;13.08;100.00
56668;BME280;42542;48.360;10.958;2022-09-09T05:25:37;95850.56;;;13.14;100.00
56668;BME280;42542;48.360;10.958;2022-09-09T05:28:39;95861.78;;;13.17;100.00
56668;BME280;42542;48.360;10.958;2022-09-09T05:31:41;95861.03;;;13.23;100.00
56668;BME280;42542;48.360;10.958;2022-09-09T05:34:47;95863.97;;;13.28;100.00
56668;BME280;42542;48.360;10.958;2022-09-09T05:37:49;95872.09;;;13.35;100.00
56668;BME280;42542;48.360;10.958;2022-09-09T05:40:52;95871.56;;;13.40;100.00
56668;BME280;42542;48.360;10.958;2022-09-09T05:43:53;95889.59;;;13.46;100.00
56668;BME280;42542;48.360;10.958;2022-09-09T05:46:56;95910.06;;;13.47;100.00
56668;BME280;42542;48.360;10.958;2022-09-09T05:49:59;95926.81;;;13.49;99.50
56668;BME280;42542;48.360;10.958;2022-09-09T05:53:01;95933.66;;;13.51;99.45
56668;BME280;42542;48.360;10.958;2022-09-09T05:56:05;95937.44;;;13.57;98.75
56668;BME280;42542;48.360;10.958;2022-09-09T05:59:09;95938.75;;;13.61;97.93
56668;BME280;42542;48.360;10.958;2022-09-09T06:02:12;95939.44;;;13.69;97.24
56668;BME280;42542;48.360;10.958;2022-09-09T06:05:15;95932.69;;;13.74;96.57
56668;BME280;42542;48.360;10.958;2022-09-09T06:08:17;95930.09;;;13.80;96.45
56668;BME280;42542;48.360;10.958;2022-09-09T06:11:30;95929.34;;;13.86;95.80
56668;BME280;42542;48.360;10.958;2022-09-09T06:14:35;95928.56;;;13.92;95.77
56668;BME280;42542;48.360;10.958;2022-09-09T06:17:38;95930.31;;;14.00;96.33
56668;BME280;42542;48.360;10.958;2022-09-09T06:20:40;95929.53;;;14.06;96.46
56668;BME280;42542;48.360;10.958;2022-09-09T06:23:42;95930.00;;;14.10;96.16
56668;BME280;42542;48.360;10.958;2022-09-09T06:26:46;95932.13;;;14.14;95.66
56668;BME280;42542;48.360;10.958;2022-09-09T06:29:53;95929.50;;;14.21;94.87
56668;BME280;42542;48.360;10.958;2022-09-09T06:32:55;95933.28;;;14.26;95.29
56668;BME280;42542;48.360;10.958;2022-09-09T06:35:57;95934.19;;;14.33;94.92
56668;BME280;42542;48.360;10.958;2022-09-09T06:38:59;95934.47;;;14.38;95.46
56668;BME280;42542;48.360;10.958;2022-09-09T06:42:04;95920.63;;;14.41;95.00
56668;BME280;42542;48.360;10.958;2022-09-09T06:45:18;95928.97;;;14.47;95.44
56668;BME280;42542;48.360;10.958;2022-09-09T06:48:28;95925.69;;;14.51;95.60
56668;BME280;42542;48.360;10.958;2022-09-09T06:51:33;95922.41;;;14.56;95.80
56668;BME280;42542;48.360;10.958;2022-09-09T06:54:37;95924.06;;;14.57;95.36
56668;BME280;42542;48.360;10.958;2022-09-09T06:57:39;95923.88;;;14.58;94.82
56668;BME280;42542;48.360;10.958;2022-09-09T07:00:48;95924.34;;;14.62;94.96
56668;BME280;42542;48.360;10.958;2022-09-09T07:03:52;95933.69;;;14.66;95.01
56668;BME280;42542;48.360;10.958;2022-09-09T07:06:54;95925.84;;;14.71;95.04
56668;BME280;42542;48.360;10.958;2022-09-09T07:09:58;95917.00;;;14.77;94.69
56668;BME280;42542;48.360;10.958;2022-09-09T07:13:00;95919.50;;;14.78;94.40
56668;BME280;42542;48.360;10.958;2022-09-09T07:16:12;95937.53;;;14.84;95.36
56668;BME280;42542;48.360;10.958;2022-09-09T07:19:15;95940.31;;;14.91;95.35
56668;BME280;42542;48.360;10.958;2022-09-09T07:22:18;95946.78;;;14.97;95.66
56668;BME280;42542;48.360;10.958;2022-09-09T07:25:20;95951.19;;;15.04;95.26
56668;BME280;42542;48.360;10.958;2022-09-09T07:28:24;95951.22;;;15.11;95.30
56668;BME280;42542;48.360;10.958;2022-09-09T07:31:28;95954.34;;;15.14;94.82
56668;BME280;42542;48.360;10.958;2022-09-09T07:34:32;95949.41;;;15.18;94.50
56668;BME280;42542;48.360;10.958;2022-09-09T07:37:37;95957.28;;;15.19;94.07
56668;BME280;42542;48.360;10.958;2022-09-09T07:40:39;95961.06;;;15.25;94.78
56668;BME280;42542;48.360;10.958;2022-09-09T07:43:42;95968.34;;;15.31;94.19
56668;BME280;42542;48.360;10.958;2022-09-09T07:46:45;95968.34;;;15.31;93.99
56668;BME280;42542;48.360;10.958;2022-09-09T07:49:51;95978.50;;;15.36;94.16
56668;BME280;42542;48.360;10.958;2022-09-09T07:52:58;95959.28;;;15.39;93.66
56668;BME280;42542;48.360;10.958;2022-09-09T07:56:09;95969.63;;;15.42;93.46
56668;BME280;42542;48.360;10.958;2022-09-09T07:59:12;95970.72;;;15.47;93.53
56668;BME280;42542;48.360;10.958;2022-09-09T08:02:18;95955.66;;;15.53;93.39
56668;BME280;42542;48.360;10.958;2022-09-09T08:05:19;95962.09;;;15.58;93.30
56668;BME280;42542;48.360;10.958;2022-09-09T08:08:22;95955.72;;;15.66;93.67
56668;BME280;42542;48.360;10.958;2022-09-09T08:11:26;95957.81;;;15.71;93.78
56668;BME280;42542;48.360;10.958;2022-09-09T08:14:28;95950.81;;;15.76;93.86
56668;BME280;42542;48.360;10.958;2022-09-09T08:17:32;95970.94;;;15.80;93.86
56668;BME280;42542;48.360;10.958;2022-09-09T08:20:38;95979.47;;;15.90;95.06
56668;BME280;42542;48.360;10.958;2022-09-09T08:23:41;95972.25;;;15.97;94.94
56668;BME280;42542;48.360;10.958;2022-09-09T08:26:46;95969.38;;;16.06;94.33
56668;BME280;42542;48.360;10.958;2022-09-09T08:29:49;95969.41;;;16.12;94.46
56668;BME280;42542;48.360;10.958;2022-09-09T08:32:51;95977.31;;;16.20;93.70
56668;BME280;42542;48.360;10.958;2022-09-09T08:35:55;95979.00;;;16.28;93.11
56668;BME280;42542;48.360;10.958;2022-09-09T08:38:57;95970.09;;;16.34;92.78
56668;BME280;42542;48.360;10.958;2022-09-09T08:45:22;95969.94;;;16.49;91.40
56668;BME280;42542;48.360;10.958;2022-09-09T08:52:25;95979.56;;;16.71;91.95
56668;BME280;42542;48.360;10.958;2022-09-09T08:55:46;95981.81;;;16.81;91.43
56668;BME280;42542;48.360;10.958;2022-09-09T08:58:54;95975.41;;;16.88;90.52
56668;BME280;42542;48.360;10.958;2022-09-09T09:05:35;95969.16;;;17.07;89.91
56668;BME280;42542;48.360;10.958;2022-09-09T09:08:42;95974.97;;;17.17;90.25
56668;BME280;42542;48.360;10.958;2022-09-09T09:11:54;95966.47;;;17.27;90.20
56668;BME280;42542;48.360;10.958;2022-09-09T09:14:59;95960.59;;;17.37;89.79
56668;BME280;42542;48.360;10.958;2022-09-09T09:18:02;95968.28;;;17.46;90.27
56668;BME280;42542;48.360;10.958;2022-09-09T09:24:41;95965.75;;;17.58;88.25
56668;BME280;42542;48.360;10.958;2022-09-09T09:27:59;95962.66;;;17.68;87.75
56668;BME280;42542;48.360;10.958;2022-09-09T09:31:12;95969.09;;;17.73;88.12
56668;BME280;42542;48.360;10.958;2022-09-09T09:34:18;95967.81;;;17.82;88.79
56668;BME280;42542;48.360;10.958;2022-09-09T09:37:27;95974.47;;;17.93;88.37
56668;BME280;42542;48.360;10.958;2022-09-09T09:40:30;95972.31;;;18.02;88.31
56668;BME280;42542;48.360;10.958;2022-09-09T09:43:40;95977.69;;;18.08;86.62
56668;BME280;42542;48.360;10.958;2022-09-09T09:46:49;95971.47;;;18.14;85.49
56668;BME280;42542;48.360;10.958;2022-09-09T09:49:58;95960.59;;;18.21;85.13
56668;BME280;42542;48.360;10.958;2022-09-09T09:53:05;95959.53;;;18.28;84.83
56668;BME280;42542;48.360;10.958;2022-09-09T09:56:13;95958.66;;;18.34;85.05
56668;BME280;42542;48.360;10.958;2022-09-09T09:59:33;95961.94;;;18.43;83.93
56668;BME280;42542;48.360;10.958;2022-09-09T10:02:47;95965.25;;;18.45;83.11
56668;BME280;42542;48.360;10.958;2022-09-09T10:05:55;95963.56;;;18.51;82.86
56668;BME280;42542;48.360;10.958;2022-09-09T10:08:57;95964.59;;;18.56;82.25
56668;BME280;42542;48.360;10.958;2022-09-09T10:15:44;95974.50;;;18.69;81.59
56668;BME280;42542;48.360;10.958;2022-09-09T10:19:01;95970.09;;;18.75;80.97
56668;BME280;42542;48.360;10.958;2022-09-09T10:22:33;95966.50;;;18.81;80.86
56668;BME280;42542;48.360;10.958;2022-09-09T10:25:50;95965.47;;;18.82;80.43
56668;BME280;42542;48.360;10.958;2022-09-09T10:36:20;95962.00;;;18.99;78.68
56668;BME280;42542;48.360;10.958;2022-09-09T10:39:34;95963.88;;;18.99;79.05
56668;BME280;42542;48.360;10.958;2022-09-09T10:42:43;95964.25;;;19.02;79.17
56668;BME280;42542;48.360;10.958;2022-09-09T10:55:56;95960.22;;;19.11;78.41
56668;BME280;42542;48.360;10.958;2022-09-09T10:59:10;95955.22;;;19.15;79.09
56668;BME280;42542;48.360;10.958;2022-09-09T11:02:26;95964.13;;;19.22;79.50
56668;BME280;42542;48.360;10.958;2022-09-09T11:05:41;95961.56;;;19.27;78.93
56668;BME280;42542;48.360;10.958;2022-09-09T11:08:44;95961.94;;;19.31;79.23
56668;BME280;42542;48.360;10.958;2022-09-09T11:11:52;95959.84;;;19.33;78.86
56668;BME280;42542;48.360;10.958;2022-09-09T11:18:59;95962.09;;;19.36;78.34
56668;BME280;42542;48.360;10.958;2022-09-09T11:22:30;95959.41;;;19.36;76.23
56668;BME280;42542;48.360;10.958;2022-09-09T11:25:37;95957.88;;;19.40;77.27
56668;BME280;42542;48.360;10.958;2022-09-09T11:28:57;95964.94;;;19.47;77.13
56668;BME280;42542;48.360;10.958;2022-09-09T11:35:40;95963.75;;;19.62;76.53
56668;BME280;42542;48.360;10.958;2022-09-09T11:38:52;95958.94;;;19.64;76.26
56668;BME280;42542;48.360;10.958;2022-09-09T11:42:07;95947.41;;;19.68;75.29
56668;BME280;42542;48.360;10.958;2022-09-09T11:45:27;95938.22;;;19.69;75.70
56668;BME280;42542;48.360;10.958;2022-09-09T11:51:36;95955.25;;;19.76;75.61
56668;BME280;42542;48.360;10.958;2022-09-09T11:54:47;95955.25;;;19.76;74.22
56668;BME280;42542;48.360;10.958;2022-09-09T11:57:57;95947.50;;;19.80;74.84
56668;BME280;42542;48.360;10.958;2022-09-09T12:01:00;95951.56;;;19.89;75.34
56668;BME280;42542;48.360;10.958;2022-09-09T12:13:29;95934.88;;;20.04;74.48
56668;BME280;42542;48.360;10.958;2022-09-09T12:16:36;95932.34;;;20.09;74.19
56668;BME280;42542;48.360;10.958;2022-09-09T12:19:40;95931.66;;;20.13;74.04
56668;BME280;42542;48.360;10.958;2022-09-09T12:23:15;95933.00;;;20.22;73.07
56668;BME280;42542;48.360;10.958;2022-09-09T12:26:34;95930.06;;;20.24;73.39
56668;BME280;42542;48.360;10.958;2022-09-09T12:29:47;95938.22;;;20.24;73.35
56668;BME280;42542;48.360;10.958;2022-09-09T12:33:16;95935.84;;;20.27;72.73
56668;BME280;42542;48.360;10.958;2022-09-09T12:39:29;95927.19;;;20.37;72.54
56668;BME280;42542;48.360;10.958;2022-09-09T12:42:33;95921.16;;;20.35;73.16
56668;BME280;42542;48.360;10.958;2022-09-09T12:45:42;95912.56;;;20.38;74.03
56668;BME280;42542;48.360;10.958;2022-09-09T12:48:44;95922.94;;;20.41;72.44
56668;BME280;42542;48.360;10.958;2022-09-09T12:51:47;95912.31;;;20.40;72.35
56668;BME280;42542;48.360;10.958;2022-09-09T12:54:49;95899.78;;;20.39;72.31
56668;BME280;42542;48.360;10.958;2022-09-09T12:57:55;95904.16;;;20.40;72.67
56668;BME280;42542;48.360;10.958;2022-09-09T13:00:58;95902.06;;;20.42;72.46
56668;BME280;42542;48.360;10.958;2022-09-09T13:04:00;95896.41;;;20.43;72.91
56668;BME280;42542;48.360;10.958;2022-09-09T13:07:09;95888.94;;;20.39;72.89
56668;BME280;42542;48.360;10.958;2022-09-09T13:10:14;95885.88;;;20.35;72.37
56668;BME280;42542;48.360;10.958;2022-09-09T13:13:41;95885.03;;;20.35;72.38
56668;BME280;42542;48.360;10.958;2022-09-09T13:16:59;95879.22;;;20.31;71.71
56668;BME280;42542;48.360;10.958;2022-09-09T13:20:02;95869.88;;;20.27;71.66
56668;BME280;42542;48.360;10.958;2022-09-09T13:23:05;95875.69;;;20.31;72.53
56668;BME280;42542;48.360;10.958;2022-09-09T13:26:25;95862.09;;;20.31;69.95
56668;BME280;42542;48.360;10.958;2022-09-09T13:29:28;95856.44;;;20.32;69.98
56668;BME280;42542;48.360;10.958;2022-09-09T13:32:30;95852.88;;;20.32;69.98
56668;BME280;42542;48.360;10.958;2022-09-09T13:35:33;95859.13;;;20.32;70.26
56668;BME280;42542;48.360;10.958;2022-09-09T13:38:38;95847.25;;;20.33;70.47
56668;BME280;42542;48.360;10.958;2022-09-09T13:41:43;95849.41;;;20.43;70.37
56668;BME280;42542;48.360;10.958;2022-09-09T13:44:46;95841.28;;;20.54;70.95
56668;BME280;42542;48.360;10.958;2022-09-09T13:47:50;95835.41;;;20.69;70.84
56668;BME280;42542;48.360;10.958;2022-09-09T13:51:03;95843.00;;;20.90;69.83
56668;BME280;42542;48.360;10.958;2022-09-09T13:54:09;95838.41;;;21.02;68.69
56668;BME280;42542;48.360;10.958;2022-09-09T13:57:17;95846.66;;;21.08;68.28
56668;BME280;42542;48.360;10.958;2022-09-09T14:00:19;95848.78;;;21.05;68.15
56668;BME280;42542;48.360;10.958;2022-09-09T14:03:24;95850.47;;;20.95;68.08
56668;BME280;42542;48.360;10.958;2022-09-09T14:06:25;95854.13;;;20.89;68.24
56668;BME280;42542;48.360;10.958;2022-09-09T14:09:27;95844.06;;;20.78;67.30
56668;BME280;42542;48.360;10.958;2022-09-09T14:12:30;95854.31;;;20.64;68.18
56668;BME280;42542;48.360;10.958;2022-09-09T14:15:31;95871.63;;;20.51;68.14
56668;BME280;42542;48.360;10.958;2022-09-09T14:18:33;95896.03;;;20.40;68.49
56668;BME280;42542;48.360;10.958;2022-09-09T14:21:35;95946.75;;;19.91;69.50
56668;BME280;42542;48.360;10.958;2022-09-09T14:24:37;95959.19;;;19.37;72.77
56668;BME280;42542;48.360;10.958;2022-09-09T14:27:41;95930.97;;;18.70;72.73
56668;BME280;42542;48.360;10.958;2022-09-09T14:30:44;95905.66;;;18.20;73.95
56668;BME280;42542;48.360;10.958;2022-09-09T14:33:46;95915.63;;;17.82;74.72
56668;BME280;42542;48.360;10.958;2022-09-09T14:36:47;95906.53;;;17.56;75.94
56668;BME280;42542;48.360;10.958;2022-09-09T14:39:49;95900.94;;;17.45;77.59
56668;BME280;42542;48.360;10.958;2022-09-09T14:42:53;95892.44;;;17.41;78.46
56668;BME280;42542;48.360;10.958;2022-09-09T14:45:54;95894.69;;;17.64;81.46
56668;BME280;42542;48.360;10.958;2022-09-09T14:48:56;95893.34;;;17.80;79.24
56668;BME280;42542;48.360;10.958;2022-09-09T14:51:58;95884.19;;;17.87;79.42
56668;BME280;42542;48.360;10.958;2022-09-09T14:55:00;95869.53;;;18.02;82.63
56668;BME280;42542;48.360;10.958;2022-09-09T14:58:02;95877.81;;;18.13;82.17
56668;BME280;42542;48.360;10.958;2022-09-09T15:01:05;95878.44;;;18.09;81.06
56668;BME280;42542;48.360;10.958;2022-09-09T15:04:07;95880.31;;;18.15;83.73
56668;BME280;42542;48.360;10.958;2022-09-09T15:07:09;95879.94;;;18.05;82.14
56668;BME280;42542;48.360;10.958;2022-09-09T15:10:12;95879.31;;;18.03;84.29
56668;BME280;42542;48.360;10.958;2022-09-09T15:13:14;95869.53;;;18.02;83.13
56668;BME280;42542;48.360;10.958;2022-09-09T15:16:19;95866.78;;;18.08;83.31
56668;BME280;42542;48.360;10.958;2022-09-09T15:19:21;95868.69;;;18.39;83.53
56668;BME280;42542;48.360;10.958;2022-09-09T15:22:23;95872.34;;;18.83;85.71
56668;BME280;42542;48.360;10.958;2022-09-09T15:25:25;95856.91;;;19.26;86.66
56668;BME280;42542;48.360;10.958;2022-09-09T15:28:28;95854.16;;;19.69;86.73
56668;BME280;42542;48.360;10.958;2022-09-09T15:31:32;95851.16;;;20.07;85.96
56668;BME280;42542;48.360;10.958;2022-09-09T15:34:33;95846.72;;;20.43;85.26
56668;BME280;42542;48.360;10.958;2022-09-09T15:37:35;95849.59;;;20.71;83.16
56668;BME280;42542;48.360;10.958;2022-09-09T15:40:37;95837.56;;;20.90;80.59
56668;BME280;42542;48.360;10.958;2022-09-09T15:43:43;95838.84;;;21.11;80.87
56668;BME280;42542;48.360;10.958;2022-09-09T15:46:49;95840.53;;;21.35;80.44
56668;BME280;42542;48.360;10.958;2022-09-09T15:49:51;95841.34;;;21.48;80.03
56668;BME280;42542;48.360;10.958;2022-09-09T15:52:53;95839.56;;;21.41;79.58
56668;BME280;42542;48.360;10.958;2022-09-09T15:55:55;95842.91;;;21.20;79.33
56668;BME280;42542;48.360;10.958;2022-09-09T15:58:59;95837.31;;;20.92;79.16
56668;BME280;42542;48.360;10.958;2022-09-09T16:02:01;95831.75;;;20.63;79.92
56668;BME280;42542;48.360;10.958;2022-09-09T16:05:03;95825.00;;;20.43;81.50
56668;BME280;42542;48.360;10.958;2022-09-09T16:08:05;95829.22;;;20.39;82.71
56668;BME280;42542;48.360;10.958;2022-09-09T16:11:11;95818.94;;;20.41;83.36
56668;BME280;42542;48.360;10.958;2022-09-09T16:14:14;95814.13;;;20.43;83.25
56668;BME280;42542;48.360;10.958;2022-09-09T16:17:20;95815.28;;;20.35;82.32
56668;BME280;42542;48.360;10.958;2022-09-09T16:20:22;95806.84;;;20.25;82.77
56668;BME280;42542;48.360;10.958;2022-09-09T16:23:24;95811.63;;;20.11;82.76
56668;BME280;42542;48.360;10.958;2022-09-09T16:26:27;95811.72;;;19.93;83.34
56668;BME280;42542;48.360;10.958;2022-09-09T16:29:29;95820.69;;;19.75;83.38
56668;BME280;42542;48.360;10.958;2022-09-09T16:32:30;95816.59;;;19.55;83.80
56668;BME280;42542;48.360;10.958;2022-09-09T16:35:36;95828.00;;;19.38;84.51
56668;BME280;42542;48.360;10.958;2022-09-09T16:38:38;95825.53;;;19.19;84.92
56668;BME280;42542;48.360;10.958;2022-09-09T16:41:40;95822.56;;;19.02;85.31
56668;BME280;42542;48.360;10.958;2022-09-09T16:44:42;95822.31;;;18.85;85.49
56668;BME280;42542;48.360;10.958;2022-09-09T16:47:44;95826.22;;;18.71;86.30
56668;BME280;42542;48.360;10.958;2022-09-09T16:50:50;95827.56;;;18.55;87.12
56668;BME280;42542;48.360;10.958;2022-09-09T16:53:52;95829.09;;;18.45;87.46
56668;BME280;42542;48.360;10.958;2022-09-09T16:56:54;95827.09;;;18.33;87.95
56668;BME280;42542;48.360;10.958;2022-09-09T16:59:56;95829.44;;;18.23;88.72
56668;BME280;42542;48.360;10.958;2022-09-09T17:03:00;95829.34;;;18.12;88.46
56668;BME280;42542;48.360;10.958;2022-09-09T17:06:03;95835.47;;;18.01;88.97
56668;BME280;42542;48.360;10.958;2022-09-09T17:09:10;95830.34;;;17.86;88.97
56668;BME280;42542;48.360;10.958;2022-09-09T17:12:12;95834.53;;;17.75;89.30
56668;BME280;42542;48.360;10.958;2022-09-09T17:15:13;95838.16;;;17.63;89.66
56668;BME280;42542;48.360;10.958;2022-09-09T17:18:16;95832.53;;;17.51;89.96
56668;BME280;42542;48.360;10.958;2022-09-09T17:21:21;95836.31;;;17.37;90.63
56668;BME280;42542;48.360;10.958;2022-09-09T17:24:23;95829.72;;;17.26;91.08
56668;BME280;42542;48.360;10.958;2022-09-09T17:27:25;95837.03;;;17.19;91.17
56668;BME280;42542;48.360;10.958;2022-09-09T17:30:26;95847.22;;;17.10;91.65
56668;BME280;42542;48.360;10.958;2022-09-09T17:33:32;95836.63;;;17.02;92.48
56668;BME280;42542;48.360;10.958;2022-09-09T17:36:34;95841.22;;;16.95;92.87
56668;BME280;42542;48.360;10.958;2022-09-09T17:39:37;95843.09;;;16.88;92.60
56668;BME280;42542;48.360;10.958;2022-09-09T17:42:39;95843.75;;;16.77;91.39
56668;BME280;42542;48.360;10.958;2022-09-09T17:45:42;95857.25;;;16.70;89.70
56668;BME280;42542;48.360;10.958;2022-09-09T17:48:43;95863.50;;;16.71;91.95